Terminal Aerodrome Forecast
Issued by NWS

Home | Current Version | Previous Version | Text Only | Print | Product List | Glossary On
Versions: 1 2 3 4 5 6 7 8 9 10 11 12 13 14 15 16 17 18 19 20 21 22 23 24 25 26 27 28 29 30 31 32 33 34 35 36 37 38 39 40 41 42 43 44 45 46 47 48 49 50
000
FTUS45 KTWC 181700
TAFOLS
TAF
KOLS 181727Z 1818/1918 24008KT P6SM FEW015 SCT025 OVC050
     FM182000 26008KT P6SM SCT030 BKN050
     FM190100 23005KT P6SM FEW040 SCT060 BKN090
     FM190600 14005KT 4SM BR BKN005 OVC010
      TEMPO 1906/1910 2SM -SHRA BR OVC005
     FM191500 VRB03KT P6SM FEW010 BKN030=

USA.gov is the U.S. government's official web portal to all federal, state and local government web resources and services.